createdAt,value
2023-02-12T00:01:56.550Z,3.20
2023-02-12T00:04:25.680Z,3.18
2023-02-12T00:06:54.985Z,3.16
2023-02-12T00:09:24.111Z,3.16
2023-02-12T00:11:53.428Z,3.09
2023-02-12T00:14:22.534Z,3.18
2023-02-12T00:16:51.839Z,3.21
2023-02-12T00:19:22.918Z,3.21
2023-02-12T00:21:52.357Z,3.23
2023-02-12T00:24:21.316Z,3.22
2023-02-12T00:26:51.091Z,3.24
2023-02-12T00:29:20.302Z,3.23
2023-02-12T00:31:49.610Z,3.23
2023-02-12T00:34:18.693Z,3.24
2023-02-12T00:36:49.463Z,3.21
2023-02-12T00:39:18.540Z,3.17
2023-02-12T00:41:47.891Z,3.16
2023-02-12T00:44:17.021Z,3.15
2023-02-12T00:46:46.467Z,3.15
2023-02-12T00:49:15.963Z,3.15
2023-02-12T00:51:45.532Z,3.18
2023-02-12T00:54:15.947Z,3.19
2023-02-12T00:56:45.450Z,3.17
2023-02-12T00:59:14.433Z,3.20
2023-02-12T01:01:43.856Z,3.22
2023-02-12T01:04:13.081Z,3.22
2023-02-12T01:06:42.626Z,3.22
2023-02-12T01:09:12.942Z,3.22
2023-02-12T01:11:43.847Z,3.19
2023-02-12T01:14:12.936Z,3.17
2023-02-12T01:16:42.276Z,3.17
2023-02-12T01:19:13.713Z,3.17
2023-02-12T01:21:43.153Z,3.16
2023-02-12T01:24:12.244Z,3.16
2023-02-12T01:26:42.938Z,3.17
2023-02-12T01:29:12.949Z,3.19
2023-02-12T01:31:42.908Z,3.15
2023-02-12T01:34:13.094Z,3.09
2023-02-12T01:36:42.512Z,3.06
2023-02-12T01:39:13.543Z,3.00
2023-02-12T01:41:46.126Z,2.93
2023-02-12T01:44:18.191Z,2.88
2023-02-12T01:46:50.528Z,2.84
2023-02-12T01:49:23.567Z,2.87
2023-02-12T01:51:56.907Z,2.81
2023-02-12T01:54:27.737Z,2.81
2023-02-12T01:56:58.702Z,2.80
2023-02-12T01:59:28.185Z,2.81
2023-02-12T02:01:57.625Z,2.78
2023-02-12T02:04:31.888Z,2.75
2023-02-12T02:07:03.365Z,2.72
2023-02-12T02:09:35.907Z,2.69
2023-02-12T02:12:24.255Z,2.66
2023-02-12T02:14:57.698Z,2.59
2023-02-12T02:17:48.292Z,2.52
2023-02-12T02:20:58.989Z,2.44
2023-02-12T02:23:54.140Z,2.39
2023-02-12T02:27:03.366Z,2.35
2023-02-12T02:30:01.989Z,2.32
2023-02-12T02:32:37.874Z,2.20
2023-02-12T02:35:12.623Z,2.26
2023-02-12T02:37:46.867Z,2.23
2023-02-12T02:40:19.967Z,2.22
2023-02-12T02:42:55.486Z,2.20
2023-02-12T02:45:30.473Z,2.24
2023-02-12T02:48:06.233Z,2.28
2023-02-12T02:50:40.712Z,2.25
2023-02-12T02:53:14.588Z,2.22
2023-02-12T02:55:48.934Z,2.20
2023-02-12T02:58:22.020Z,2.17
2023-02-12T03:00:58.032Z,2.15
2023-02-12T03:03:34.025Z,2.16
2023-02-12T03:06:09.377Z,2.19
2023-02-12T03:08:42.196Z,2.18
2023-02-12T03:11:16.298Z,2.18
2023-02-12T03:13:50.078Z,2.20
2023-02-12T03:16:24.136Z,2.25
2023-02-12T03:19:01.883Z,2.28
2023-02-12T03:21:38.277Z,2.26
2023-02-12T03:24:14.801Z,2.24
2023-02-12T03:26:50.496Z,2.16
2023-02-12T03:29:19.696Z,2.07
2023-02-12T03:32:00.553Z,1.98
2023-02-12T03:34:38.758Z,1.96
2023-02-12T03:37:12.338Z,1.91
2023-02-12T03:39:53.044Z,1.86
2023-02-12T03:42:34.809Z,1.85
2023-02-12T03:45:10.089Z,1.82
2023-02-12T03:47:47.872Z,1.77
2023-02-12T03:50:22.985Z,1.73
2023-02-12T03:52:52.830Z,1.72
2023-02-12T03:55:21.930Z,1.71
2023-02-12T03:57:55.621Z,1.68
2023-02-12T04:00:26.659Z,1.67
2023-02-12T04:02:56.702Z,1.67
2023-02-12T04:05:28.609Z,1.69
2023-02-12T04:07:59.887Z,1.65
2023-02-12T04:10:33.959Z,1.63
2023-02-12T04:13:12.473Z,1.61
2023-02-12T04:15:56.060Z,1.61
2023-02-12T04:18:35.460Z,1.53
2023-02-12T04:21:15.287Z,1.46
2023-02-12T04:23:53.341Z,1.43
2023-02-12T04:26:30.058Z,1.39
2023-02-12T04:29:13.197Z,1.36
2023-02-12T04:31:47.806Z,1.28
2023-02-12T04:34:23.674Z,1.27
2023-02-12T04:36:59.410Z,1.24
2023-02-12T04:39:32.609Z,1.24
2023-02-12T04:42:02.554Z,1.21
2023-02-12T04:44:35.093Z,1.22
2023-02-12T04:47:04.221Z,1.22
2023-02-12T04:49:33.514Z,1.26
2023-02-12T04:52:03.988Z,1.24
2023-02-12T04:54:33.331Z,1.20
2023-02-12T04:57:02.455Z,1.19
2023-02-12T04:59:31.910Z,1.18
2023-02-12T05:02:00.872Z,1.19
2023-02-12T05:04:30.288Z,1.19
2023-02-12T05:06:59.277Z,1.20
2023-02-12T05:09:30.109Z,1.20
2023-02-12T05:11:59.202Z,1.19
2023-02-12T05:14:28.804Z,1.19
2023-02-12T05:16:57.831Z,1.18
2023-02-12T05:19:27.205Z,1.19
2023-02-12T05:21:56.247Z,1.19
2023-02-12T05:24:25.901Z,1.15
2023-02-12T05:26:56.414Z,1.16
2023-02-12T05:29:25.828Z,1.18
2023-02-12T05:31:54.907Z,1.21
2023-02-12T05:34:24.415Z,1.23
2023-02-12T05:36:53.379Z,1.23
2023-02-12T05:39:22.841Z,1.23
2023-02-12T05:41:51.858Z,1.22
2023-02-12T05:44:22.508Z,1.23
2023-02-12T05:46:51.348Z,1.22
2023-02-12T05:49:20.678Z,1.20
2023-02-12T05:51:50.438Z,1.12
2023-02-12T05:54:19.770Z,1.21
2023-02-12T05:56:49.519Z,1.23
2023-02-12T05:59:23.419Z,1.24
2023-02-12T06:01:53.757Z,1.23
2023-02-12T06:04:25.704Z,1.20
2023-02-12T06:06:55.966Z,1.20
2023-02-12T06:09:26.089Z,1.21
2023-02-12T06:11:55.136Z,1.21
2023-02-12T06:14:25.791Z,1.19
2023-02-12T06:16:55.052Z,1.13
2023-02-12T06:19:24.729Z,1.08
2023-02-12T06:21:53.781Z,1.04
2023-02-12T06:24:23.063Z,1.05
2023-02-12T06:26:53.060Z,1.06
2023-02-12T06:29:22.633Z,1.10
2023-02-12T06:31:53.109Z,1.17
2023-02-12T06:34:22.603Z,1.19
2023-02-12T06:36:51.601Z,1.21
2023-02-12T06:39:20.966Z,1.24
2023-02-12T06:41:50.036Z,1.25
2023-02-12T06:44:19.396Z,1.27
2023-02-12T06:46:48.506Z,1.28
2023-02-12T06:49:19.242Z,1.31
2023-02-12T06:51:48.345Z,1.33
2023-02-12T06:54:19.166Z,1.36
2023-02-12T06:56:48.343Z,1.40
2023-02-12T06:59:18.658Z,1.39
2023-02-12T07:01:47.704Z,1.38
2023-02-12T07:04:18.525Z,1.38
2023-02-12T07:06:48.047Z,1.40
2023-02-12T07:09:17.411Z,1.44
2023-02-12T07:11:46.458Z,1.47
2023-02-12T07:14:17.161Z,1.49
2023-02-12T07:16:46.016Z,1.50
2023-02-12T07:19:16.473Z,1.51
2023-02-12T07:21:47.540Z,1.50
2023-02-12T07:24:18.194Z,1.50
2023-02-12T07:26:47.107Z,1.50
2023-02-12T07:29:17.238Z,1.51
2023-02-12T07:31:46.342Z,1.52
2023-02-12T07:34:15.658Z,1.54
2023-02-12T07:36:46.076Z,1.58
2023-02-12T07:39:15.409Z,1.60
2023-02-12T07:41:44.424Z,1.61
2023-02-12T07:44:14.574Z,1.61
2023-02-12T07:46:47.818Z,1.62
2023-02-12T07:49:19.954Z,1.66
2023-02-12T07:51:50.837Z,1.64
2023-02-12T07:54:20.250Z,1.59
2023-02-12T07:56:49.302Z,1.62
2023-02-12T07:59:19.734Z,1.64
2023-02-12T08:01:50.703Z,1.61
2023-02-12T08:04:21.852Z,1.65
2023-02-12T08:06:54.833Z,1.69
2023-02-12T08:09:25.705Z,1.74
2023-02-12T08:11:55.827Z,1.78
2023-02-12T08:14:25.787Z,1.82
2023-02-12T08:16:54.866Z,1.84
2023-02-12T08:19:26.593Z,1.89
2023-02-12T08:21:58.505Z,1.93
2023-02-12T08:24:28.044Z,1.97
2023-02-12T08:26:57.612Z,2.05
2023-02-12T08:29:28.849Z,2.13
2023-02-12T08:32:00.035Z,2.18
2023-02-12T08:34:31.608Z,2.23
2023-02-12T08:37:02.357Z,2.29
2023-02-12T08:39:32.226Z,2.33
2023-02-12T08:42:02.067Z,2.37
2023-02-12T08:44:31.850Z,2.40
2023-02-12T08:47:00.987Z,2.42
2023-02-12T08:49:31.389Z,2.45
2023-02-12T08:52:03.117Z,2.46
2023-02-12T08:54:33.435Z,2.50
2023-02-12T08:57:03.781Z,2.54
2023-02-12T08:59:33.368Z,2.57
2023-02-12T09:02:04.120Z,2.58
2023-02-12T09:04:34.275Z,2.63
2023-02-12T09:07:04.887Z,2.64
2023-02-12T09:09:34.251Z,2.67
2023-02-12T09:12:03.254Z,2.68
2023-02-12T09:14:32.884Z,2.73
2023-02-12T09:17:01.969Z,2.78
2023-02-12T09:19:31.426Z,2.82
2023-02-12T09:22:00.471Z,2.85
2023-02-12T09:24:32.363Z,2.91
2023-02-12T09:27:01.498Z,2.95
2023-02-12T09:29:30.801Z,2.99
2023-02-12T09:32:00.250Z,3.04
2023-02-12T09:34:30.064Z,3.06
2023-02-12T09:36:59.149Z,3.04
2023-02-12T09:39:32.311Z,3.06
2023-02-12T09:42:18.318Z,3.10
2023-02-12T09:44:55.742Z,3.14
2023-02-12T09:47:32.241Z,3.19
2023-02-12T09:50:28.126Z,3.26
2023-02-12T09:52:59.256Z,3.32
2023-02-12T09:55:32.124Z,3.36
2023-02-12T09:58:05.130Z,3.41
2023-02-12T10:00:34.653Z,3.40
2023-02-12T10:03:06.297Z,3.42
2023-02-12T10:05:42.168Z,3.43
2023-02-12T10:08:33.237Z,3.47
2023-02-12T10:11:17.206Z,3.49
2023-02-12T10:13:55.948Z,3.51
2023-02-12T10:16:38.676Z,3.56
2023-02-12T10:19:22.476Z,3.63
2023-02-12T10:22:02.088Z,3.67
2023-02-12T10:24:53.187Z,3.71
2023-02-12T10:27:38.122Z,3.77
2023-02-12T10:30:19.580Z,3.84
2023-02-12T10:32:54.357Z,3.89
2023-02-12T10:35:28.634Z,3.95
2023-02-12T10:38:04.199Z,3.96
2023-02-12T10:40:37.652Z,4.02
2023-02-12T10:43:12.146Z,4.04
2023-02-12T10:45:44.144Z,4.12
2023-02-12T10:48:19.771Z,4.19
2023-02-12T10:51:02.302Z,4.26
2023-02-12T10:53:35.095Z,4.27
2023-02-12T10:56:19.848Z,4.32
2023-02-12T10:59:01.412Z,4.40
2023-02-12T11:01:32.183Z,4.48
2023-02-12T11:04:19.174Z,4.52
2023-02-12T11:06:59.696Z,4.64
2023-02-12T11:09:31.314Z,4.72
2023-02-12T11:12:00.564Z,4.82
2023-02-12T11:14:32.128Z,4.94
2023-02-12T11:17:02.847Z,5.09
2023-02-12T11:19:35.046Z,5.24
2023-02-12T11:22:11.231Z,5.59
2023-02-12T11:24:40.631Z,5.96
2023-02-12T11:27:25.345Z,6.31
2023-02-12T11:30:18.844Z,6.51
2023-02-12T11:32:49.405Z,6.53
2023-02-12T11:35:25.074Z,6.47
2023-02-12T11:37:57.343Z,6.46
2023-02-12T11:40:29.058Z,6.45
2023-02-12T11:43:01.105Z,6.42
2023-02-12T11:45:35.553Z,6.47
2023-02-12T11:48:16.260Z,6.44
2023-02-12T11:50:49.346Z,6.46
2023-02-12T11:53:26.182Z,6.49
2023-02-12T11:55:58.599Z,6.55
2023-02-12T11:58:28.998Z,6.63
2023-02-12T12:01:11.160Z,6.71
2023-02-12T12:03:50.702Z,6.77
2023-02-12T12:06:32.429Z,6.85
2023-02-12T12:09:07.996Z,6.81
2023-02-12T12:11:48.398Z,6.77
2023-02-12T12:14:23.704Z,6.78
2023-02-12T12:17:18.814Z,6.76
2023-02-12T12:19:57.716Z,6.63
2023-02-12T12:22:40.834Z,6.55
2023-02-12T12:25:24.967Z,6.59
2023-02-12T12:28:09.386Z,6.54
2023-02-12T12:30:47.118Z,6.53
2023-02-12T12:33:27.670Z,6.63
2023-02-12T12:36:19.162Z,6.58
2023-02-12T12:39:01.978Z,6.50
2023-02-12T12:41:41.806Z,6.25
2023-02-12T12:44:26.998Z,6.22
2023-02-12T12:47:15.689Z,6.23
2023-02-12T12:50:15.816Z,6.07
2023-02-12T12:53:02.059Z,6.15
2023-02-12T12:55:53.648Z,6.20
2023-02-12T12:58:31.858Z,6.10
2023-02-12T13:01:20.379Z,5.99
2023-02-12T13:04:20.222Z,5.93
2023-02-12T13:06:57.967Z,5.77
2023-02-12T13:09:43.777Z,5.68
2023-02-12T13:12:46.751Z,5.59
2023-02-12T13:15:24.576Z,5.49
2023-02-12T13:18:00.232Z,5.30
2023-02-12T13:20:55.109Z,5.18
2023-02-12T13:27:48.631Z,5.08
2023-02-12T13:46:00.913Z,5.30
2023-02-12T13:48:51.717Z,4.99
2023-02-12T13:51:25.624Z,4.85
2023-02-12T13:54:06.143Z,4.76
2023-02-12T13:56:39.260Z,4.55
2023-02-12T13:59:39.812Z,4.61
2023-02-12T14:02:42.777Z,4.51
2023-02-12T14:05:34.282Z,4.53
2023-02-12T14:08:07.136Z,4.47
2023-02-12T14:10:39.274Z,4.43
2023-02-12T14:13:20.646Z,4.41
2023-02-12T14:15:52.694Z,4.41
2023-02-12T14:18:32.239Z,4.43
2023-02-12T14:21:41.281Z,4.42
2023-02-12T14:24:52.654Z,4.43
2023-02-12T14:27:42.709Z,4.36
2023-02-12T14:30:28.321Z,4.42
2023-02-12T14:33:20.160Z,4.37
2023-02-12T14:36:13.976Z,4.37
2023-02-12T14:39:00.517Z,4.42
2023-02-12T14:41:44.355Z,4.43
2023-02-12T14:44:48.477Z,4.45
2023-02-12T14:47:50.921Z,4.48
2023-02-12T14:50:36.940Z,4.48
2023-02-12T14:53:24.975Z,4.45
2023-02-12T14:55:55.799Z,4.44
2023-02-12T14:58:27.227Z,4.43
2023-02-12T15:00:59.068Z,4.42
2023-02-12T15:03:35.853Z,4.48
2023-02-12T15:06:11.127Z,4.50
2023-02-12T15:08:48.423Z,4.52
2023-02-12T15:11:36.066Z,4.55
2023-02-12T15:14:07.662Z,4.58
2023-02-12T15:16:48.848Z,4.62
2023-02-12T15:19:40.301Z,4.64
2023-02-12T15:22:22.901Z,4.67
2023-02-12T15:24:53.480Z,4.68
2023-02-12T15:27:23.134Z,4.70
2023-02-12T15:29:54.491Z,4.70
2023-02-12T15:32:26.875Z,4.71
2023-02-12T15:34:57.323Z,4.71
2023-02-12T15:37:29.619Z,4.73
2023-02-12T15:40:03.722Z,4.75
2023-02-12T15:42:35.570Z,4.75
2023-02-12T15:45:23.226Z,4.75
2023-02-12T15:48:11.547Z,4.73
2023-02-12T15:50:52.060Z,4.74
2023-02-12T15:53:23.497Z,4.73
2023-02-12T15:55:54.582Z,4.73
2023-02-12T15:58:26.769Z,4.71
2023-02-12T16:01:00.533Z,4.72
2023-02-12T16:03:32.445Z,4.71
2023-02-12T16:06:05.850Z,4.72
2023-02-12T16:08:36.702Z,4.70
2023-02-12T16:11:14.774Z,4.70
2023-02-12T16:13:48.206Z,4.70
2023-02-12T16:16:24.717Z,4.71
2023-02-12T16:19:09.023Z,4.73
2023-02-12T16:21:40.437Z,4.73
2023-02-12T16:24:22.683Z,4.76
2023-02-12T16:26:53.393Z,4.78
2023-02-12T16:29:22.968Z,4.78
2023-02-12T16:31:57.048Z,4.78
2023-02-12T16:34:35.939Z,4.80
2023-02-12T16:37:31.026Z,4.81
2023-02-12T16:40:26.131Z,4.84
2023-02-12T16:43:22.994Z,4.82
2023-02-12T16:45:52.925Z,4.84
2023-02-12T16:48:25.392Z,4.87
2023-02-12T16:50:57.411Z,4.84
2023-02-12T16:53:47.141Z,4.88
2023-02-12T16:56:21.029Z,4.88
2023-02-12T16:58:55.213Z,4.89
2023-02-12T17:01:26.183Z,4.93
2023-02-12T17:03:56.563Z,4.96
2023-02-12T17:06:28.089Z,4.99
2023-02-12T17:08:57.504Z,4.93
2023-02-12T17:11:28.007Z,4.95
2023-02-12T17:13:58.326Z,4.94
2023-02-12T17:16:31.085Z,4.94
2023-02-12T17:19:01.438Z,4.93
2023-02-12T17:21:32.411Z,4.96
2023-02-12T17:24:01.577Z,4.93
2023-02-12T17:26:31.074Z,4.96
2023-02-12T17:29:05.471Z,5.00
2023-02-12T17:31:36.738Z,5.01
2023-02-12T17:34:06.812Z,5.02
2023-02-12T17:36:36.123Z,5.00
2023-02-12T17:39:07.870Z,5.04
2023-02-12T17:41:37.968Z,5.04
2023-02-12T17:44:08.802Z,5.02
2023-02-12T17:46:40.868Z,5.03
2023-02-12T17:49:10.000Z,5.00
2023-02-12T17:51:39.332Z,4.99
2023-02-12T17:54:08.305Z,4.99
2023-02-12T17:56:37.583Z,5.07
2023-02-12T17:59:07.857Z,5.09
2023-02-12T18:01:37.103Z,5.08
2023-02-12T18:04:06.193Z,5.08
2023-02-12T18:06:35.749Z,5.05
2023-02-12T18:09:05.436Z,5.09
2023-02-12T18:11:34.641Z,5.11
2023-02-12T18:14:03.636Z,5.13
2023-02-12T18:16:35.961Z,5.11
2023-02-12T18:19:05.957Z,5.15
2023-02-12T18:21:35.232Z,5.09
2023-02-12T18:24:04.545Z,5.13
2023-02-12T18:26:34.033Z,5.16
2023-02-12T18:29:03.057Z,5.20
2023-02-12T18:31:34.052Z,5.21
2023-02-12T18:34:03.233Z,5.21
2023-02-12T18:36:32.364Z,5.24
2023-02-12T18:39:02.008Z,5.24
2023-02-12T18:41:33.128Z,5.28
2023-02-12T18:44:02.254Z,5.27
2023-02-12T18:46:34.502Z,5.31
2023-02-12T18:49:03.935Z,5.31
2023-02-12T18:51:36.656Z,5.32
2023-02-12T18:54:07.966Z,5.33
2023-02-12T18:56:40.082Z,5.36
2023-02-12T18:59:09.444Z,5.37
2023-02-12T19:01:40.935Z,5.37
2023-02-12T19:04:12.634Z,5.39
2023-02-12T19:06:43.841Z,5.40
2023-02-12T19:09:16.649Z,5.43
2023-02-12T19:11:47.364Z,5.45
2023-02-12T19:14:17.907Z,5.46
2023-02-12T19:16:48.951Z,5.48
2023-02-12T19:19:18.833Z,5.51
2023-02-12T19:21:48.718Z,5.53
2023-02-12T19:24:19.528Z,5.55
2023-02-12T19:26:52.894Z,5.55
2023-02-12T19:29:22.864Z,5.57
2023-02-12T19:31:53.547Z,5.54
2023-02-12T19:34:24.882Z,5.53
2023-02-12T19:36:54.254Z,5.54
2023-02-12T19:39:25.707Z,5.55
2023-02-12T19:41:56.311Z,5.58
2023-02-12T19:44:25.802Z,5.59
2023-02-12T19:46:56.890Z,5.60
2023-02-12T19:49:27.402Z,5.63
2023-02-12T19:51:56.916Z,5.65
2023-02-12T19:54:25.904Z,5.68
2023-02-12T19:56:56.332Z,5.68
2023-02-12T19:59:26.939Z,5.67
2023-02-12T20:01:57.552Z,5.69
2023-02-12T20:04:27.876Z,5.66
2023-02-12T20:06:58.076Z,5.69
2023-02-12T20:09:27.161Z,5.67
2023-02-12T20:11:57.512Z,5.70
2023-02-12T20:14:27.533Z,5.73
2023-02-12T20:16:58.563Z,5.72
2023-02-12T20:19:29.184Z,5.70
2023-02-12T20:22:01.583Z,5.73
2023-02-12T20:24:33.157Z,5.76
2023-02-12T20:27:04.257Z,5.77
2023-02-12T20:29:33.309Z,5.77
2023-02-12T20:32:03.975Z,5.79
2023-02-12T20:34:39.747Z,5.77
2023-02-12T20:37:18.832Z,5.77
2023-02-12T20:39:48.094Z,5.78
2023-02-12T20:42:17.321Z,5.79
2023-02-12T20:44:46.323Z,5.82
2023-02-12T20:47:16.914Z,5.84
2023-02-12T20:50:11.212Z,5.82
2023-02-12T20:52:41.730Z,5.85
2023-02-12T20:55:10.993Z,5.87
2023-02-12T20:57:40.130Z,5.87
2023-02-12T21:00:10.504Z,5.89
2023-02-12T21:02:41.082Z,5.91
2023-02-12T21:05:10.604Z,5.86
2023-02-12T21:07:39.799Z,5.93
2023-02-12T21:10:09.416Z,5.90
2023-02-12T21:12:39.139Z,5.90
2023-02-12T21:15:08.483Z,5.90
2023-02-12T21:17:37.710Z,5.91
2023-02-12T21:20:09.458Z,5.91
2023-02-12T21:22:38.773Z,5.94
2023-02-12T21:25:08.580Z,5.95
2023-02-12T21:27:40.736Z,5.95
2023-02-12T21:30:10.629Z,5.97
2023-02-12T21:32:39.704Z,5.94
2023-02-12T21:35:10.307Z,5.94
2023-02-12T21:37:39.582Z,5.95
2023-02-12T21:40:10.244Z,5.97
2023-02-12T21:42:39.543Z,5.97
2023-02-12T21:45:09.113Z,5.97
2023-02-12T21:47:38.478Z,5.97
2023-02-12T21:50:14.083Z,5.94
2023-02-12T21:52:43.434Z,5.96
2023-02-12T21:55:12.344Z,5.98
2023-02-12T21:57:41.518Z,6.00
2023-02-12T22:00:12.324Z,6.00
2023-02-12T22:02:44.625Z,6.02
2023-02-12T22:05:15.164Z,6.03
2023-02-12T22:07:44.396Z,6.02
2023-02-12T22:10:13.367Z,6.02
2023-02-12T22:12:42.666Z,6.01
2023-02-12T22:15:11.789Z,6.02
2023-02-12T22:17:41.109Z,5.99
2023-02-12T22:20:11.433Z,5.98
2023-02-12T22:22:42.195Z,5.98
2023-02-12T22:25:11.145Z,5.99
2023-02-12T22:27:41.483Z,6.02
2023-02-12T22:30:11.158Z,6.01
2023-02-12T22:32:40.469Z,6.01
2023-02-12T22:35:10.028Z,6.03
2023-02-12T22:37:43.314Z,6.02
2023-02-12T22:40:13.895Z,6.03
2023-02-12T22:42:43.192Z,5.99
2023-02-12T22:45:12.233Z,6.02
2023-02-12T22:47:41.843Z,6.03
2023-02-12T22:50:11.584Z,6.05
2023-02-12T22:52:42.131Z,6.05
2023-02-12T22:55:11.669Z,6.05
2023-02-12T22:57:40.906Z,6.05
2023-02-12T23:00:11.362Z,6.05
2023-02-12T23:02:40.561Z,6.06
2023-02-12T23:05:09.601Z,6.05
2023-02-12T23:07:38.876Z,6.03
2023-02-12T23:10:10.572Z,6.02
2023-02-12T23:12:39.930Z,6.00
2023-02-12T23:15:09.377Z,5.97
2023-02-12T23:17:38.827Z,5.97
2023-02-12T23:20:08.554Z,5.99
2023-02-12T23:22:37.892Z,5.94
2023-02-12T23:25:08.750Z,5.93
2023-02-12T23:27:38.020Z,5.88
2023-02-12T23:30:08.943Z,5.88
2023-02-12T23:32:38.235Z,5.84
2023-02-12T23:35:07.509Z,5.81
2023-02-12T23:37:36.821Z,5.82
2023-02-12T23:40:06.499Z,5.79
2023-02-12T23:42:37.153Z,5.78
2023-02-12T23:45:06.418Z,5.75
2023-02-12T23:47:35.916Z,5.74
2023-02-12T23:50:05.002Z,5.75
2023-02-12T23:52:34.171Z,5.73
2023-02-12T23:55:03.127Z,5.70
2023-02-12T23:57:32.297Z,5.70
